Time;durP1;ratioP1;P1;durP2;ratioP2;P2;SDS_P1;SDS_P2;PMS_P1;PMS_P2;Temp;Humidity;BMP_temperature;BMP_pressure;BME280_temperature;BME280_humidity;BME280_pressure;Samples;Min_cycle;Max_cycle;Signal;HPM_P1;HPM_P2
2023/02/07 00:01:13;;;;;;;35.05;15.68;;;-0.80;99.90;;;;;;5047754;28;20383;-79
2023/02/07 00:03:39;;;;;;;46.88;19.77;;;-0.80;99.90;;;;;;5064779;27;20396;-80
2023/02/07 00:06:09;;;;;;;38.17;17.55;;;-0.80;99.90;;;;;;5056344;28;20130;-80
2023/02/07 00:08:34;;;;;;;48.88;17.85;;;-0.80;99.90;;;;;;5062700;28;20066;-80
2023/02/07 00:11:09;;;;;;;32.90;16.90;;;-0.70;99.90;;;;;;5073555;28;20032;-80
2023/02/07 00:13:35;;;;;;;40.10;16.23;;;-0.60;99.90;;;;;;5027287;28;20504;-79
2023/02/07 00:16:02;;;;;;;28.30;12.80;;;-0.50;99.90;;;;;;5079067;28;20039;-79
2023/02/07 00:18:27;;;;;;;39.55;19.23;;;-0.40;99.90;;;;;;5058424;28;20032;-80
2023/02/07 00:21:01;;;;;;;38.70;16.67;;;-0.50;99.90;;;;;;5044082;28;20033;-80
2023/02/07 00:23:26;;;;;;;48.15;20.30;;;-0.30;99.90;;;;;;5057409;28;20090;-80
2023/02/07 00:25:52;;;;;;;55.60;21.90;;;-0.20;99.90;;;;;;5047182;28;20036;-79
2023/02/07 00:28:18;;;;;;;36.78;15.93;;;-0.40;99.90;;;;;;5051321;28;20143;-81
2023/02/07 00:30:43;;;;;;;40.90;18.05;;;-0.30;99.90;;;;;;5033306;28;20051;-80
2023/02/07 00:33:09;;;;;;;53.38;22.67;;;-0.10;99.90;;;;;;5064331;28;20051;-80
2023/02/07 00:35:34;;;;;;;50.30;21.05;;;-0.10;99.90;;;;;;5033448;28;20029;-80
2023/02/07 00:38:00;;;;;;;55.00;22.02;;;-0.10;99.90;;;;;;5061587;27;20107;-80
2023/02/07 00:40:25;;;;;;;58.47;20.95;;;-0.20;99.90;;;;;;5045146;28;20036;-80
2023/02/07 00:42:51;;;;;;;34.92;14.20;;;-0.10;99.90;;;;;;5056575;28;20036;-80
2023/02/07 00:45:17;;;;;;;47.72;21.75;;;0.30;99.90;;;;;;5048369;28;20044;-80
2023/02/07 00:47:42;;;;;;;66.18;25.00;;;0.20;99.90;;;;;;5059964;27;20082;-80
2023/02/07 00:50:09;;;;;;;42.63;17.80;;;0.20;99.90;;;;;;5080682;28;20044;-81
2023/02/07 00:52:34;;;;;;;46.78;20.48;;;0.20;99.90;;;;;;5059289;28;20123;-80
2023/02/07 00:55:00;;;;;;;49.28;20.42;;;0.30;99.90;;;;;;5076818;28;20103;-81
2023/02/07 00:57:25;;;;;;;32.53;16.27;;;0.50;99.90;;;;;;5076498;28;20028;-81
2023/02/07 00:59:51;;;;;;;45.70;19.75;;;0.40;99.90;;;;;;5048361;28;20061;-80
2023/02/07 01:02:16;;;;;;;56.67;23.17;;;0.60;99.90;;;;;;5042439;28;20032;-81
2023/02/07 01:04:42;;;;;;;40.78;17.63;;;0.50;99.90;;;;;;5053189;28;20032;-81
2023/02/07 01:07:08;;;;;;;56.45;24.15;;;0.40;99.90;;;;;;5044311;28;20695;-80
2023/02/07 01:09:33;;;;;;;53.63;21.88;;;0.40;99.90;;;;;;5045225;28;20437;-81
2023/02/07 01:11:59;;;;;;;47.40;19.80;;;0.50;99.90;;;;;;5080300;28;20051;-81
2023/02/07 01:14:27;;;;;;;55.33;23.23;;;0.60;99.90;;;;;;5062477;28;20025;-81
2023/02/07 01:16:53;;;;;;;51.60;22.63;;;0.50;99.90;;;;;;5048386;28;20958;-80
2023/02/07 01:19:18;;;;;;;65.93;23.25;;;0.40;99.90;;;;;;5051598;28;20028;-81
2023/02/07 01:21:44;;;;;;;48.45;20.25;;;0.30;99.90;;;;;;5059110;27;20070;-80
2023/02/07 01:24:09;;;;;;;52.20;23.63;;;0.30;99.90;;;;;;5060044;28;20029;-80
2023/02/07 01:26:36;;;;;;;55.70;24.05;;;0.20;99.90;;;;;;5053276;28;20024;-81
2023/02/07 01:29:01;;;;;;;56.50;23.50;;;0.20;99.90;;;;;;5074609;28;20158;-80
2023/02/07 01:31:27;;;;;;;61.10;23.85;;;0.10;99.90;;;;;;5063327;28;20039;-81
2023/02/07 01:33:56;;;;;;;59.90;23.30;;;-0.20;99.90;;;;;;5063781;28;20133;-80
2023/02/07 01:36:22;;;;;;;56.55;23.05;;;-0.10;99.90;;;;;;5050683;28;20856;-80
2023/02/07 01:38:47;;;;;;;50.65;23.20;;;-0.10;99.90;;;;;;5052023;28;20029;-80
2023/02/07 01:41:13;;;;;;;55.60;21.67;;;-0.30;99.90;;;;;;5066700;28;20035;-81
2023/02/07 01:44:23;;;;;;;61.65;23.70;;;-0.40;99.90;;;;;;5036630;28;20034;-81
2023/02/07 01:46:50;;;;;;;64.57;22.83;;;-0.40;99.90;;;;;;5038255;28;20597;-80
2023/02/07 01:49:16;;;;;;;56.78;22.92;;;-0.60;99.90;;;;;;5055042;28;20040;-81
2023/02/07 01:51:45;;;;;;;59.75;23.90;;;-0.60;99.90;;;;;;5019393;28;20496;-82
2023/02/07 01:54:11;;;;;;;79.13;25.15;;;-0.60;99.90;;;;;;5063463;28;20035;-80
2023/02/07 01:56:37;;;;;;;47.63;17.77;;;-0.50;99.90;;;;;;5032919;28;20029;-80
2023/02/07 01:59:03;;;;;;;59.97;23.67;;;-0.50;99.90;;;;;;5028858;28;20063;-81
2023/02/07 02:01:29;;;;;;;57.90;21.08;;;-0.50;99.90;;;;;;5054553;28;20040;-81
2023/02/07 02:03:55;;;;;;;86.07;22.52;;;-0.50;99.90;;;;;;5051695;28;20509;-80
2023/02/07 02:06:21;;;;;;;68.40;24.48;;;-0.40;99.90;;;;;;5041867;28;20086;-80
2023/02/07 02:08:46;;;;;;;145.85;20.98;;;-0.40;99.90;;;;;;5042201;28;20039;-80
2023/02/07 02:11:27;;;;;;;276.90;26.88;;;-0.40;99.90;;;;;;5052070;28;20028;-80
2023/02/07 02:14:08;;;;;;;300.85;27.67;;;-0.40;99.90;;;;;;5058888;28;20385;-81
2023/02/07 02:16:37;;;;;;;272.45;27.08;;;-0.40;99.90;;;;;;5066096;28;20041;-80
2023/02/07 02:19:22;;;;;;;248.52;25.08;;;-0.60;99.90;;;;;;5048001;28;20046;-80
2023/02/07 02:22:25;;;;;;;321.30;27.10;;;-0.70;99.90;;;;;;5062609;28;20035;-80
2023/02/07 02:25:02;;;;;;;167.32;23.65;;;-0.50;99.90;;;;;;5072836;28;20400;-80
2023/02/07 02:27:47;;;;;;;365.33;34.55;;;-0.60;99.90;;;;;;5057941;28;20021;-81
2023/02/07 02:30:32;;;;;;;217.80;26.10;;;-0.70;99.90;;;;;;5064480;28;20050;-81
2023/02/07 02:32:58;;;;;;;359.35;28.38;;;-0.80;99.90;;;;;;5056718;28;20028;-81
2023/02/07 02:35:27;;;;;;;194.32;25.10;;;-0.70;99.90;;;;;;5069444;28;20036;-80
2023/02/07 02:38:09;;;;;;;430.17;30.58;;;-0.60;99.90;;;;;;5074842;28;20555;-80
2023/02/07 02:40:48;;;;;;;363.88;27.38;;;-0.60;99.90;;;;;;5046173;28;20520;-80
2023/02/07 02:43:34;;;;;;;259.70;26.13;;;-0.50;99.90;;;;;;5054259;28;20032;-80
2023/02/07 02:46:01;;;;;;;;;;;-0.40;99.90;;;;;;5052803;28;20083;-80
2023/02/07 02:48:27;;;;;;;479.35;33.88;;;-0.40;99.90;;;;;;5061475;28;19955;-81
2023/02/07 02:50:52;;;;;;;343.95;28.63;;;-0.50;99.90;;;;;;5065754;28;20052;-80
2023/02/07 02:53:18;;;;;;;407.45;37.53;;;-0.50;99.90;;;;;;5052141;28;20173;-80
2023/02/07 02:55:52;;;;;;;443.02;34.20;;;-0.50;99.90;;;;;;5044251;28;20059;-80
2023/02/07 02:58:41;;;;;;;488.73;34.65;;;-0.40;99.90;;;;;;5075873;28;20037;-80
2023/02/07 03:01:27;;;;;;;174.68;20.25;;;-0.50;99.90;;;;;;5052038;27;20081;-81
2023/02/07 03:04:06;;;;;;;37.83;14.20;;;-0.40;99.90;;;;;;5060516;28;20029;-81
2023/02/07 03:06:43;;;;;;;34.83;14.98;;;-0.30;99.90;;;;;;5058218;28;20044;-80
2023/02/07 03:09:24;;;;;;;279.50;24.40;;;-0.30;99.90;;;;;;5034415;28;20076;-80
2023/02/07 03:11:55;;;;;;;266.23;20.92;;;-0.30;99.90;;;;;;5049770;28;20557;-79
2023/02/07 03:14:32;;;;;;;276.23;21.45;;;-0.40;99.90;;;;;;5050448;28;20337;-80
2023/02/07 03:17:08;;;;;;;307.58;26.17;;;-0.50;99.90;;;;;;5065937;28;20032;-81
2023/02/07 03:19:39;;;;;;;259.15;20.92;;;-0.50;99.90;;;;;;5049056;28;20108;-80
2023/02/07 03:22:09;;;;;;;236.68;19.38;;;-0.50;99.90;;;;;;5025294;28;20099;-80
2023/02/07 03:24:36;;;;;;;370.33;24.33;;;-0.60;99.90;;;;;;5072137;28;20391;-80
2023/02/07 03:27:03;;;;;;;368.02;24.58;;;-0.50;99.90;;;;;;5070897;28;20042;-81
2023/02/07 03:29:30;;;;;;;159.00;17.52;;;-0.60;99.90;;;;;;5062953;28;20115;-78
2023/02/07 03:31:59;;;;;;;318.60;24.70;;;-0.50;99.90;;;;;;5075611;28;20650;-78
2023/02/07 03:34:32;;;;;;;57.38;12.52;;;-0.40;99.90;;;;;;5059534;28;20667;-78
2023/02/07 03:37:05;;;;;;;183.13;18.33;;;-0.50;99.90;;;;;;5059622;28;20024;-81
2023/02/07 03:39:31;;;;;;;343.58;24.63;;;-0.50;99.90;;;;;;5068380;28;20074;-81
2023/02/07 03:42:03;;;;;;;129.73;16.05;;;-0.50;99.90;;;;;;5061749;28;20056;-80
2023/02/07 03:44:28;;;;;;;257.35;24.75;;;-0.50;99.90;;;;;;5056538;28;20509;-80
2023/02/07 03:46:54;;;;;;;203.88;19.05;;;-0.50;99.90;;;;;;5062691;28;20035;-82
2023/02/07 03:49:19;;;;;;;121.25;15.23;;;-0.50;99.90;;;;;;5063051;28;20029;-80
2023/02/07 03:51:46;;;;;;;217.57;20.27;;;-0.40;99.90;;;;;;5046250;28;20025;-81
2023/02/07 03:54:11;;;;;;;378.95;26.52;;;-0.50;99.90;;;;;;5035786;28;21121;-80
2023/02/07 03:56:37;;;;;;;90.25;14.77;;;-0.40;99.90;;;;;;5066893;28;20035;-81
2023/02/07 03:59:03;;;;;;;71.07;15.50;;;-0.40;99.90;;;;;;5080309;27;20029;-81
2023/02/07 04:01:28;;;;;;;79.43;13.73;;;-0.50;99.90;;;;;;5059248;28;20031;-80
2023/02/07 04:03:54;;;;;;;280.23;21.67;;;-0.40;99.90;;;;;;5055559;28;20427;-80
2023/02/07 04:06:19;;;;;;;21.60;10.13;;;-0.40;99.90;;;;;;5055753;28;20385;-80
2023/02/07 04:08:45;;;;;;;227.18;20.70;;;-0.40;99.90;;;;;;5053097;28;20016;-80
2023/02/07 04:11:10;;;;;;;289.35;22.30;;;-0.30;99.90;;;;;;5041170;28;20038;-80
2023/02/07 04:13:36;;;;;;;161.00;18.10;;;-0.50;99.90;;;;;;5064047;28;20032;-80
2023/02/07 04:16:03;;;;;;;95.40;15.13;;;-0.50;99.90;;;;;;5078884;28;20040;-81
2023/02/07 04:18:29;;;;;;;120.80;20.02;;;-0.50;99.90;;;;;;5029297;28;20599;-80
2023/02/07 04:21:02;;;;;;;48.53;14.45;;;-0.50;99.90;;;;;;5058207;28;20035;-80
2023/02/07 04:23:28;;;;;;;22.92;11.68;;;-0.50;99.90;;;;;;5061292;28;20412;-81
2023/02/07 04:25:53;;;;;;;31.80;12.90;;;-0.40;99.90;;;;;;5057489;28;20029;-82
2023/02/07 04:28:19;;;;;;;62.17;13.40;;;-0.40;99.90;;;;;;5039707;28;20036;-81
2023/02/07 04:30:44;;;;;;;55.85;12.93;;;-0.50;99.90;;;;;;5033308;28;20363;-81
2023/02/07 04:33:10;;;;;;;204.70;20.85;;;-0.50;99.90;;;;;;5065495;28;20488;-81
2023/02/07 04:35:35;;;;;;;245.25;22.27;;;-0.50;99.90;;;;;;5060729;28;20400;-80
2023/02/07 04:38:01;;;;;;;185.35;19.42;;;-0.60;99.90;;;;;;5040637;28;20020;-81
2023/02/07 04:40:26;;;;;;;95.07;16.08;;;-0.60;99.90;;;;;;5066419;28;20032;-81
2023/02/07 04:42:52;;;;;;;31.38;12.30;;;-0.60;99.90;;;;;;5066593;28;20043;-80
2023/02/07 04:45:17;;;;;;;67.40;13.55;;;-0.50;99.90;;;;;;5052321;28;20033;-80
2023/02/07 04:47:43;;;;;;;41.50;13.55;;;-0.50;99.90;;;;;;5063152;28;20033;-79
2023/02/07 04:50:08;;;;;;;118.57;16.50;;;-0.50;99.90;;;;;;5054088;28;20056;-80
2023/02/07 04:52:34;;;;;;;143.75;17.40;;;-0.50;99.90;;;;;;5052036;28;20149;-80
2023/02/07 04:54:59;;;;;;;56.25;15.15;;;-0.60;99.90;;;;;;5064797;28;20028;-80
2023/02/07 04:57:25;;;;;;;22.33;12.07;;;-0.50;99.90;;;;;;5051090;28;20392;-80
2023/02/07 04:59:50;;;;;;;18.52;9.40;;;-0.40;99.90;;;;;;5064961;28;20024;-80
2023/02/07 05:02:16;;;;;;;20.27;11.63;;;-0.30;99.90;;;;;;5059163;28;20047;-80
2023/02/07 05:04:41;;;;;;;65.80;16.52;;;-0.50;99.90;;;;;;5046423;28;20387;-80
2023/02/07 05:07:07;;;;;;;32.55;14.75;;;-0.70;99.90;;;;;;5065335;28;20035;-80
2023/02/07 05:09:32;;;;;;;37.80;16.17;;;-0.60;99.90;;;;;;5047856;28;20116;-81
2023/02/07 05:11:58;;;;;;;35.08;15.02;;;-0.70;99.90;;;;;;5054903;28;20107;-81
2023/02/07 05:14:24;;;;;;;29.40;14.50;;;-0.80;99.90;;;;;;5054117;28;20036;-80
2023/02/07 05:16:49;;;;;;;31.08;14.32;;;-0.80;99.90;;;;;;5065456;28;20028;-80
2023/02/07 05:19:15;;;;;;;25.30;12.52;;;-0.90;99.90;;;;;;5042613;28;20353;-80
2023/02/07 05:21:40;;;;;;;30.58;14.38;;;-1.00;99.90;;;;;;5061659;28;20028;-80
2023/02/07 05:24:06;;;;;;;32.00;16.60;;;-1.10;99.90;;;;;;5045780;28;20024;-80
2023/02/07 05:26:32;;;;;;;33.08;15.13;;;-1.20;99.90;;;;;;5075428;27;20035;-82
2023/02/07 05:28:57;;;;;;;38.95;16.67;;;-1.20;99.90;;;;;;5055016;28;20024;-80
2023/02/07 05:33:02;;;;;;;32.60;15.32;;;-1.20;99.90;;;;;;5074248;28;20640;-82
2023/02/07 05:34:08;;;;;;;32.13;15.32;;;-1.30;99.90;;;;;;5071496;28;20039;-80
2023/02/07 05:36:34;;;;;;;69.75;17.52;;;-1.20;99.90;;;;;;5054271;28;20553;-81
2023/02/07 05:39:00;;;;;;;67.70;16.92;;;-1.50;99.90;;;;;;5062794;28;20444;-81
2023/02/07 05:41:25;;;;;;;49.70;16.50;;;-1.70;99.90;;;;;;5081510;28;20445;-82
2023/02/07 05:43:51;;;;;;;45.70;17.08;;;-1.60;99.90;;;;;;5063666;28;20024;-80
2023/02/07 05:46:16;;;;;;;34.03;16.48;;;-1.60;99.90;;;;;;5077841;28;20032;-81
2023/02/07 05:48:42;;;;;;;30.40;15.18;;;-1.70;99.90;;;;;;5060286;28;20046;-81
2023/02/07 05:51:07;;;;;;;31.33;16.05;;;-1.80;99.90;;;;;;5060072;28;20028;-82
2023/02/07 05:53:33;;;;;;;39.92;17.27;;;-1.80;99.90;;;;;;5061871;28;20122;-80
2023/02/07 05:55:59;;;;;;;22.85;12.07;;;-1.70;99.90;;;;;;5045633;27;20093;-80
2023/02/07 05:58:24;;;;;;;54.17;18.83;;;-1.70;99.90;;;;;;5040632;28;20027;-81
2023/02/07 06:00:50;;;;;;;31.75;15.63;;;-2.00;99.90;;;;;;5068397;28;20032;-82
2023/02/07 06:03:15;;;;;;;34.80;15.55;;;-2.10;99.90;;;;;;5051144;28;20120;-80
2023/02/07 06:05:41;;;;;;;35.05;16.67;;;-1.90;99.90;;;;;;5060793;28;20127;-82
2023/02/07 06:08:06;;;;;;;31.98;15.73;;;-1.90;99.90;;;;;;5061277;28;20040;-82
2023/02/07 06:10:32;;;;;;;32.33;14.93;;;-2.00;99.90;;;;;;5043066;28;20119;-82
2023/02/07 06:12:57;;;;;;;31.05;15.15;;;-2.10;99.90;;;;;;5056346;28;20028;-82
2023/02/07 06:15:23;;;;;;;33.47;16.40;;;-2.10;99.90;;;;;;5057931;28;20028;-82
2023/02/07 06:17:49;;;;;;;34.80;16.05;;;-1.90;99.90;;;;;;5059638;28;20039;-83
2023/02/07 06:20:15;;;;;;;27.25;13.57;;;-2.00;99.90;;;;;;5043416;28;20415;-82
2023/02/07 06:22:40;;;;;;;31.05;14.75;;;-1.90;99.90;;;;;;5052197;28;20041;-81
2023/02/07 06:25:10;;;;;;;31.70;15.93;;;-1.80;99.90;;;;;;5059000;28;20093;-81
2023/02/07 06:27:40;;;;;;;33.05;14.13;;;-1.80;99.90;;;;;;5062592;28;20032;-82
2023/02/07 06:30:07;;;;;;;25.15;13.93;;;-1.80;99.90;;;;;;5073012;28;20067;-81
2023/02/07 06:32:32;;;;;;;22.30;11.65;;;-1.90;99.90;;;;;;5053578;28;20601;-81
2023/02/07 06:34:58;;;;;;;35.92;16.70;;;-2.00;99.90;;;;;;5061058;28;20024;-81
2023/02/07 06:37:23;;;;;;;26.80;14.65;;;-2.00;99.90;;;;;;5039267;28;20039;-80
2023/02/07 06:39:49;;;;;;;41.88;21.55;;;-2.20;99.90;;;;;;5077430;28;20039;-81
2023/02/07 06:42:14;;;;;;;40.05;21.58;;;-2.40;99.90;;;;;;5075148;28;20032;-81
2023/02/07 06:44:40;;;;;;;47.00;23.77;;;-2.60;99.90;;;;;;5049494;28;20027;-82
2023/02/07 06:47:05;;;;;;;53.47;29.85;;;-2.50;99.90;;;;;;5070281;28;20036;-81
2023/02/07 06:49:31;;;;;;;61.20;36.45;;;-2.60;99.90;;;;;;5059382;28;20054;-81
2023/02/07 06:51:56;;;;;;;61.30;34.80;;;-2.70;99.90;;;;;;5061071;28;20036;-82
2023/02/07 06:54:22;;;;;;;48.67;27.90;;;-2.60;99.90;;;;;;5059884;28;20036;-81
2023/02/07 06:56:48;;;;;;;57.65;30.52;;;-2.60;99.90;;;;;;5046915;28;20036;-80
2023/02/07 06:59:13;;;;;;;55.85;28.88;;;-2.70;99.90;;;;;;5062235;28;20029;-81
2023/02/07 07:01:39;;;;;;;62.58;31.42;;;-2.70;99.90;;;;;;5052139;27;20115;-81
2023/02/07 07:04:05;;;;;;;65.85;31.92;;;-2.80;99.90;;;;;;5055247;28;20427;-81
2023/02/07 07:06:30;;;;;;;60.13;32.63;;;-2.80;99.90;;;;;;5060772;28;20460;-81
2023/02/07 07:08:56;;;;;;;58.38;31.80;;;-2.90;99.90;;;;;;5056312;28;20111;-81
2023/02/07 07:11:22;;;;;;;64.05;35.88;;;-2.90;99.90;;;;;;5073071;28;20884;-81
2023/02/07 07:13:47;;;;;;;46.70;25.63;;;-2.80;99.90;;;;;;5074035;28;20521;-82
2023/02/07 07:16:13;;;;;;;64.20;33.75;;;-2.90;99.90;;;;;;5069198;28;20040;-81
2023/02/07 07:18:39;;;;;;;55.97;26.73;;;-2.90;99.90;;;;;;5077884;28;20211;-81
2023/02/07 07:21:05;;;;;;;59.25;30.80;;;-2.90;99.90;;;;;;5055064;28;20043;-80
2023/02/07 07:23:30;;;;;;;53.35;29.88;;;-2.50;99.90;;;;;;5034984;28;20042;-80
2023/02/07 07:25:56;;;;;;;50.28;26.60;;;-2.40;99.90;;;;;;5077513;28;20032;-80
2023/02/07 07:28:21;;;;;;;37.47;20.77;;;-2.50;99.90;;;;;;5047531;28;20052;-81
2023/02/07 07:30:47;;;;;;;35.83;20.17;;;-2.50;99.90;;;;;;5039832;28;20165;-81
2023/02/07 07:33:13;;;;;;;43.40;20.77;;;-2.20;99.90;;;;;;5060638;28;20039;-80
2023/02/07 07:35:39;;;;;;;48.88;21.33;;;-2.20;99.90;;;;;;5055538;28;20039;-80
2023/02/07 07:38:04;;;;;;;36.58;20.02;;;-2.30;99.90;;;;;;5075209;28;20403;-80
2023/02/07 07:40:30;;;;;;;38.97;19.20;;;-2.40;99.90;;;;;;5062982;28;20120;-80
2023/02/07 07:42:55;;;;;;;38.38;19.52;;;-2.30;99.90;;;;;;5068882;28;20044;-80
2023/02/07 07:45:21;;;;;;;35.47;16.92;;;-2.20;99.90;;;;;;5063493;28;20122;-80
2023/02/07 07:47:46;;;;;;;30.05;15.73;;;-2.20;99.90;;;;;;5076199;28;20433;-81
2023/02/07 07:50:12;;;;;;;32.15;16.23;;;-2.00;99.90;;;;;;5053733;28;20400;-81
2023/02/07 07:52:41;;;;;;;31.55;16.38;;;-2.20;99.90;;;;;;5058738;28;20487;-82
2023/02/07 07:55:07;;;;;;;26.52;14.55;;;-2.30;99.90;;;;;;5075021;28;20036;-81
2023/02/07 07:57:33;;;;;;;22.98;12.40;;;-2.20;99.90;;;;;;5041025;28;20032;-81
2023/02/07 07:59:59;;;;;;;32.75;15.35;;;-2.00;99.90;;;;;;5076640;28;20101;-81
2023/02/07 08:02:24;;;;;;;23.40;12.32;;;-1.70;99.90;;;;;;5072355;28;20031;-81
2023/02/07 08:04:50;;;;;;;26.52;14.02;;;-1.70;99.90;;;;;;5076927;28;20040;-81
2023/02/07 08:07:16;;;;;;;29.45;14.48;;;-1.70;99.90;;;;;;5047637;28;20075;-81
2023/02/07 08:09:41;;;;;;;26.05;14.32;;;-1.70;99.90;;;;;;5060452;28;20399;-81
2023/02/07 08:12:07;;;;;;;23.58;11.88;;;-1.60;99.90;;;;;;5041679;28;20046;-81
2023/02/07 08:14:32;;;;;;;31.10;15.38;;;-1.20;99.90;;;;;;5079670;28;20060;-81
2023/02/07 08:16:58;;;;;;;27.38;14.75;;;-1.30;99.90;;;;;;5054335;28;20032;-81
2023/02/07 08:19:24;;;;;;;30.67;15.63;;;-1.10;99.90;;;;;;5049298;28;20091;-77
2023/02/07 08:21:49;;;;;;;38.35;16.67;;;-1.20;99.90;;;;;;5061410;28;20372;-77
2023/02/07 08:24:15;;;;;;;29.30;14.98;;;-1.20;99.90;;;;;;5063312;28;20098;-77
2023/02/07 08:26:40;;;;;;;28.95;14.85;;;-1.10;99.90;;;;;;5056477;28;20024;-77
2023/02/07 08:29:06;;;;;;;20.00;11.10;;;-1.10;99.90;;;;;;5052210;28;20038;-77
2023/02/07 08:31:32;;;;;;;26.38;13.10;;;-0.90;99.90;;;;;;5077050;28;20517;-77
2023/02/07 08:33:58;;;;;;;25.35;13.63;;;-0.90;99.90;;;;;;5078951;28;20027;-77
2023/02/07 08:36:23;;;;;;;27.67;12.88;;;-0.80;99.90;;;;;;5085914;28;20476;-78
2023/02/07 08:38:49;;;;;;;29.52;14.60;;;-0.70;99.90;;;;;;5061059;28;20040;-77
2023/02/07 08:41:15;;;;;;;34.20;15.73;;;-1.10;99.90;;;;;;5064009;28;20032;-77
2023/02/07 08:43:41;;;;;;;25.20;13.20;;;-1.20;99.90;;;;;;5079210;28;20035;-77
2023/02/07 08:46:07;;;;;;;23.05;11.98;;;-0.80;99.90;;;;;;5059828;28;20434;-77
2023/02/07 08:48:32;;;;;;;25.55;12.88;;;-0.60;99.90;;;;;;5059680;28;20047;-77
2023/02/07 08:51:02;;;;;;;25.10;13.30;;;-0.70;99.90;;;;;;5071865;27;20380;-77
2023/02/07 08:53:28;;;;;;;20.73;11.00;;;-0.20;99.90;;;;;;5056282;28;20036;-77
2023/02/07 08:55:54;;;;;;;27.40;12.57;;;0.00;99.90;;;;;;5084028;28;20488;-77
2023/02/07 08:58:19;;;;;;;26.77;13.90;;;-0.40;99.90;;;;;;5062724;28;20465;-77
2023/02/07 09:00:45;;;;;;;24.42;13.88;;;-0.50;99.90;;;;;;5080281;28;20388;-77
2023/02/07 09:03:11;;;;;;;25.60;14.32;;;-0.70;99.90;;;;;;5052056;28;20066;-78
2023/02/07 09:05:36;;;;;;;25.88;13.63;;;-0.50;99.90;;;;;;5053578;28;20040;-77
2023/02/07 09:08:02;;;;;;;22.73;12.27;;;-0.70;99.90;;;;;;5044910;28;20032;-77
2023/02/07 09:10:28;;;;;;;22.52;12.77;;;-0.30;99.90;;;;;;5043734;28;20028;-78
2023/02/07 09:12:53;;;;;;;24.17;12.70;;;0.30;99.90;;;;;;5044531;28;20036;-77
2023/02/07 09:15:19;;;;;;;24.02;13.23;;;0.00;99.90;;;;;;5056400;27;20064;-77
2023/02/07 09:17:45;;;;;;;25.98;13.20;;;0.00;99.90;;;;;;5044646;28;20040;-77
2023/02/07 09:20:11;;;;;;;21.50;11.68;;;0.20;99.90;;;;;;5059398;28;20482;-78
2023/02/07 09:23:16;;;;;;;23.75;12.80;;;0.40;99.90;;;;;;5044742;28;20028;-78
2023/02/07 09:25:22;;;;;;;22.00;12.70;;;0.40;99.90;;;;;;5072863;28;20036;-77
2023/02/07 09:27:48;;;;;;;23.58;13.68;;;0.90;99.90;;;;;;5033979;28;20258;-77
2023/02/07 09:30:14;;;;;;;17.20;11.93;;;0.50;99.90;;;;;;5065763;27;20055;-77
2023/02/07 09:32:40;;;;;;;20.98;12.07;;;0.10;99.90;;;;;;5038637;28;20123;-77
2023/02/07 09:35:07;;;;;;;19.95;10.43;;;1.00;99.90;;;;;;5042182;28;20033;-77
2023/02/07 09:37:33;;;;;;;21.95;11.75;;;1.50;99.90;;;;;;5064572;28;20081;-77
2023/02/07 09:39:59;;;;;;;19.00;10.95;;;1.40;99.90;;;;;;5040947;28;20028;-78
2023/02/07 09:42:32;;;;;;;18.60;10.27;;;1.50;99.90;;;;;;5056561;28;20024;-78
2023/02/07 09:45:33;;;;;;;21.17;12.20;;;2.00;99.90;;;;;;5071449;28;20468;-78
2023/02/07 09:48:10;;;;;;;16.60;9.95;;;2.00;99.90;;;;;;5062588;28;20480;-78
2023/02/07 09:50:40;;;;;;;19.55;10.70;;;1.60;99.90;;;;;;5063798;28;20052;-77
2023/02/07 09:53:18;;;;;;;17.08;10.50;;;1.80;99.90;;;;;;5061801;28;20039;-77
2023/02/07 09:56:13;;;;;;;16.60;9.70;;;2.20;99.90;;;;;;5036704;28;20434;-77
2023/02/07 09:58:43;;;;;;;17.67;9.38;;;2.50;99.90;;;;;;5064953;28;20048;-78
2023/02/07 10:01:25;;;;;;;14.25;10.10;;;1.90;99.90;;;;;;5031230;28;20051;-78
2023/02/07 10:04:17;;;;;;;16.50;8.60;;;2.00;99.90;;;;;;5059093;28;20549;-78
2023/02/07 10:06:44;;;;;;;18.48;10.80;;;2.60;99.90;;;;;;5071714;28;20459;-78
2023/02/07 10:09:15;;;;;;;13.63;8.70;;;2.50;99.90;;;;;;5056868;28;20483;-78
2023/02/07 10:11:52;;;;;;;17.52;8.50;;;2.90;99.90;;;;;;5068301;28;20524;-78
2023/02/07 10:14:32;;;;;;;13.77;8.90;;;3.40;99.90;;;;;;5073937;28;20048;-78
2023/02/07 10:17:04;;;;;;;14.75;8.45;;;3.20;99.90;;;;;;5076231;28;20110;-78
2023/02/07 10:19:56;;;;;;;14.77;8.63;;;3.70;99.90;;;;;;5073198;28;20544;-78
2023/02/07 10:22:37;;;;;;;15.90;8.40;;;4.10;99.90;;;;;;5078093;28;20031;-77
2023/02/07 10:25:15;;;;;;;13.65;8.85;;;4.20;99.90;;;;;;5077358;28;20032;-78
2023/02/07 10:27:49;;;;;;;13.38;7.65;;;3.90;99.90;;;;;;5081690;28;20028;-78
2023/02/07 10:30:20;;;;;;;14.38;7.63;;;3.30;99.90;;;;;;5057257;28;20023;-78
2023/02/07 10:32:46;;;;;;;10.85;7.43;;;4.10;99.90;;;;;;5059573;28;20031;-78
2023/02/07 10:35:17;;;;;;;11.07;6.60;;;3.90;99.90;;;;;;5068475;28;20451;-78
2023/02/07 10:37:42;;;;;;;9.38;6.43;;;4.30;99.90;;;;;;5081934;27;20034;-78
2023/02/07 10:40:24;;;;;;;7.45;5.50;;;3.30;99.90;;;;;;5043207;28;20032;-77
2023/02/07 10:42:57;;;;;;;8.95;6.45;;;4.30;99.90;;;;;;5072370;28;20519;-77
2023/02/07 10:45:23;;;;;;;8.38;6.07;;;4.30;99.90;;;;;;5074601;28;20040;-77
2023/02/07 10:47:48;;;;;;;9.73;6.00;;;4.70;99.90;;;;;;5036921;28;20456;-76
2023/02/07 10:50:20;;;;;;;8.48;6.35;;;5.20;99.90;;;;;;5016773;28;20060;-77
2023/02/07 10:52:56;;;;;;;9.98;6.70;;;4.80;99.90;;;;;;5038177;28;20105;-77
2023/02/07 10:55:35;;;;;;;;;;;5.00;99.90;;;;;;5025040;28;20520;-78
2023/02/07 10:58:01;;;;;;;10.23;6.60;;;5.40;99.90;;;;;;5029299;28;19911;-78
2023/02/07 11:00:28;;;;;;;9.02;6.47;;;5.10;99.90;;;;;;5012093;28;20507;-77
2023/02/07 11:03:04;;;;;;;8.82;6.80;;;5.70;99.90;;;;;;5025965;28;20031;-78
2023/02/07 11:05:32;;;;;;;11.00;6.57;;;5.80;99.90;;;;;;5055097;28;20032;-78
2023/02/07 11:08:02;;;;;;;10.10;6.55;;;6.20;99.90;;;;;;5053630;28;20078;-77
2023/02/07 11:10:38;;;;;;;10.55;6.45;;;5.60;99.90;;;;;;5036249;28;20492;-78
2023/02/07 11:13:17;;;;;;;9.43;6.47;;;5.30;99.90;;;;;;5060327;28;20037;-77
2023/02/07 11:16:05;;;;;;;8.40;5.88;;;5.80;99.90;;;;;;5035092;28;20032;-77
2023/02/07 11:18:44;;;;;;;6.78;5.43;;;5.40;99.90;;;;;;5036377;28;20063;-77
2023/02/07 11:21:20;;;;;;;8.13;5.50;;;5.30;99.90;;;;;;5051100;28;20119;-78
2023/02/07 11:23:46;;;;;;;7.95;5.05;;;3.40;99.90;;;;;;5029795;28;20740;-78
2023/02/07 11:26:13;;;;;;;7.78;5.60;;;4.30;99.90;;;;;;5066972;28;20040;-77
2023/02/07 11:28:38;;;;;;;8.25;5.60;;;5.00;99.90;;;;;;5068235;28;20040;-78
2023/02/07 11:31:09;;;;;;;7.25;5.60;;;5.50;99.90;;;;;;5054904;28;20036;-78
2023/02/07 11:33:36;;;;;;;7.18;5.63;;;6.30;99.90;;;;;;5069635;28;20119;-77
2023/02/07 11:36:22;;;;;;;10.45;5.38;;;5.60;99.90;;;;;;5041320;28;20044;-77
2023/02/07 11:38:58;;;;;;;6.97;4.63;;;6.60;99.90;;;;;;5074128;28;20028;-78
2023/02/07 11:41:26;;;;;;;42.95;8.90;;;5.70;99.90;;;;;;5042562;28;20030;-78
2023/02/07 11:43:57;;;;;;;10.23;5.53;;;5.40;99.90;;;;;;5056629;28;20033;-77
2023/02/07 11:46:34;;;;;;;7.47;4.78;;;6.10;99.90;;;;;;5043325;28;20032;-77
2023/02/07 11:48:59;;;;;;;7.13;4.90;;;6.60;99.90;;;;;;5050410;28;20032;-78
2023/02/07 11:51:25;;;;;;;24.02;6.70;;;6.10;99.90;;;;;;5041694;28;20084;-78
2023/02/07 11:54:03;;;;;;;8.40;5.88;;;6.10;99.90;;;;;;5072147;28;20040;-78
2023/02/07 11:56:36;;;;;;;26.27;7.40;;;5.20;99.90;;;;;;5046067;28;20558;-79
2023/02/07 11:59:23;;;;;;;12.38;5.95;;;4.90;99.90;;;;;;5032846;28;20392;-79
2023/02/07 12:01:51;;;;;;;7.25;5.18;;;5.80;99.90;;;;;;5025817;28;20131;-79
2023/02/07 12:04:18;;;;;;;8.20;5.63;;;7.00;99.90;;;;;;5039111;28;20119;-79
2023/02/07 12:06:53;;;;;;;9.48;5.35;;;7.30;99.90;;;;;;5053893;28;20056;-79
2023/02/07 12:09:34;;;;;;;7.82;5.65;;;7.40;99.90;;;;;;5066482;28;20036;-78
2023/02/07 12:12:02;;;;;;;10.25;5.20;;;4.50;99.90;;;;;;5044900;28;20051;-77
2023/02/07 12:14:53;;;;;;;7.47;5.40;;;4.50;99.90;;;;;;5048024;28;20238;-77
2023/02/07 12:17:25;;;;;;;8.18;5.63;;;5.40;99.90;;;;;;5063842;28;20495;-77
2023/02/07 12:20:20;;;;;;;7.38;4.90;;;6.60;99.90;;;;;;5012491;28;20056;-78
2023/02/07 12:23:15;;;;;;;10.30;6.40;;;6.20;99.90;;;;;;4974188;28;20528;-78
2023/02/07 12:25:47;;;;;;;7.07;5.03;;;7.00;99.90;;;;;;5026440;28;20033;-79
2023/02/07 12:28:27;;;;;;;6.85;5.07;;;5.70;99.90;;;;;;5039554;28;20040;-78
2023/02/07 12:30:53;;;;;;;7.72;5.78;;;6.90;99.90;;;;;;5065596;28;20055;-77
2023/02/07 12:34:10;;;;;;;9.05;5.93;;;7.60;99.90;;;;;;5056993;28;20067;-77
2023/02/07 12:36:39;;;;;;;7.25;5.25;;;7.40;99.90;;;;;;5037065;28;20047;-77
2023/02/07 12:39:35;;;;;;;7.93;5.47;;;8.10;99.90;;;;;;5061985;28;20500;-78
2023/02/07 12:42:26;;;;;;;7.53;5.50;;;8.40;99.90;;;;;;5062084;28;20059;-78
2023/02/07 12:44:55;;;;;;;7.07;5.20;;;8.50;99.90;;;;;;5087459;28;20479;-78